Accueil
METAR-TAF:

METAR-TAF

Aéroports :

Aéroport de Lahr

Lahr, Allemagne

latitude: 48-22-09N, longitude: 007-49-40E, altitude: 156 m

Observation

Le bulletin a été fait il y a 24 minutes, à 08:50 UTC
Vent 3 kt de direction variable
Température 15°C
Humidité 59%
Pression 1009 hPa
Visibilité 10 km ou plus
Quelques nuages à une hauteur de 3500 ft

METAR: EDTL 140850Z VRB03KT 9999 FEW035 15/07 Q1009

Heure: 11:14 (09:14 UTC)

Prévision

Le bulletin a été fait il y a 1 heure et 14 minutes, à 08:00 UTC
Prévision valable du 14 à 09 UTC au 14 à 18 UTC
Vent 7 kt de sud/sud-ouest
Visibilité 10 km ou plus
Nuages épars à une hauteur de 3500 ft
Temporairement
du 14 à 10 UTC au 14 à 18 UTC
Nuages fragmentés à une hauteur de 3000 ft, Cumulonimbus.
averses de pluie
Probabilité 30% :
Temporairement
du 14 à 11 UTC au 14 à 18 UTC
orage, pluie

TAF: EDTL 140800Z 1409/1418 21007KT 9999 SCT035 TEMPO 1410/1418 SHRA BKN030CB PROB30 TEMPO 1411/1418 TSRA

Observations et prévisions météorologiques de plus de 4000 aéroports (messages METAR et TAF).

Les stations disponibles sont représentées par des disques jaunes et rouges sur la carte.

Passer la souris dessus pour voir le nom de la station.

Cliquer dessus pour voir les observations et prévisions météorologiques.

Pour changer de carte: cliquez sur les boutons verts avec une croix noire pour zoomer, sur le bouton vert avec un tiret pour effectuer un zoom arrière, ou sur les flèches vertes pour les cartes adjacentes.


METAR-TAF: